Time;durP1;ratioP1;P1;durP2;ratioP2;P2;SDS_P1;SDS_P2;PMS_P1;PMS_P2;Temp;Humidity;BMP_temperature;BMP_pressure;BME280_temperature;BME280_humidity;BME280_pressure;Samples;Min_cycle;Max_cycle;Signal;HPM_P1;HPM_P2
2021/10/26 00:02:21;;;;;;;;;;;11.10;99.90;;;;;;5052100;28;20213;-80
2021/10/26 00:04:47;;;;;;;;;;;11.10;99.90;;;;;;5053106;28;19968;-84
2021/10/26 00:07:12;;;;;;;;;;;11.10;99.90;;;;;;5053116;28;19925;-85
2021/10/26 00:09:38;;;;;;;;;;;11.10;99.90;;;;;;5053481;28;19913;-85
2021/10/26 00:12:04;;;;;;;;;;;11.10;99.90;;;;;;5051798;28;19928;-85
2021/10/26 00:14:30;;;;;;;;;;;11.10;99.90;;;;;;5051215;28;19913;-82
2021/10/26 00:16:56;;;;;;;;;;;11.00;99.90;;;;;;5052756;28;19921;-84
2021/10/26 00:19:22;;;;;;;;;;;11.10;99.90;;;;;;5059587;28;19999;-86
2021/10/26 00:21:48;;;;;;;;;;;11.10;99.90;;;;;;5068461;28;20376;-80
2021/10/26 00:24:13;;;;;;;;;;;11.10;99.90;;;;;;5051253;28;20068;-81
2021/10/26 00:26:39;;;;;;;;;;;11.00;99.90;;;;;;5052478;28;19921;-83
2021/10/26 00:29:04;;;;;;;;;;;11.00;99.90;;;;;;5050523;28;19917;-80
2021/10/26 00:31:30;;;;;;;;;;;11.00;99.90;;;;;;5049467;28;19928;-83
2021/10/26 00:33:56;;;;;;;;;;;11.00;99.90;;;;;;5049211;28;20252;-83
2021/10/26 00:36:22;;;;;;;;;;;11.10;99.90;;;;;;5045993;28;20020;-83
2021/10/26 00:38:48;;;;;;;;;;;11.00;99.90;;;;;;5052341;28;19924;-84
2021/10/26 00:41:14;;;;;;;;;;;11.10;99.90;;;;;;5049544;28;19920;-84
2021/10/26 00:43:40;;;;;;;;;;;11.10;99.90;;;;;;5055573;28;19920;-79
2021/10/26 00:46:06;;;;;;;;;;;11.10;99.90;;;;;;5053955;28;19925;-83
2021/10/26 00:48:32;;;;;;;;;;;11.10;99.90;;;;;;5051491;28;19913;-83
2021/10/26 00:50:58;;;;;;;;;;;11.10;99.90;;;;;;5050371;28;20262;-80
2021/10/26 00:53:24;;;;;;;;;;;11.10;99.90;;;;;;5052115;28;19920;-82
2021/10/26 00:55:50;;;;;;;;;;;11.20;99.90;;;;;;5067383;28;19927;-79
2021/10/26 00:58:16;;;;;;;;;;;11.20;99.90;;;;;;5052076;28;20154;-78
2021/10/26 01:00:42;;;;;;;;;;;11.20;99.90;;;;;;5049937;28;20361;-79
2021/10/26 01:03:08;;;;;;;;;;;11.20;99.90;;;;;;5055719;28;19924;-78
2021/10/26 01:05:34;;;;;;;;;;;11.30;99.90;;;;;;5050941;28;20224;-79
2021/10/26 01:08:00;;;;;;;;;;;11.30;99.90;;;;;;5049168;28;19967;-79
2021/10/26 01:10:26;;;;;;;;;;;11.30;99.90;;;;;;5049629;28;19956;-78
2021/10/26 01:12:51;;;;;;;;;;;11.30;99.90;;;;;;5049084;28;19967;-79
2021/10/26 01:15:17;;;;;;;;;;;11.30;99.90;;;;;;5051312;28;19913;-79
2021/10/26 01:17:42;;;;;;;;;;;11.20;99.90;;;;;;5052274;28;19912;-79
2021/10/26 01:20:08;;;;;;;;;;;11.20;99.90;;;;;;5050206;28;19925;-79
2021/10/26 01:22:39;;;;;;;;;;;11.20;99.90;;;;;;5058071;28;19921;-78
2021/10/26 01:25:12;;;;;;;;;;;11.20;99.90;;;;;;5052761;28;20295;-79
2021/10/26 01:27:43;;;;;;;;;;;11.20;99.90;;;;;;5052773;28;19924;-79
2021/10/26 01:30:09;;;;;;;;;;;11.20;99.90;;;;;;5061552;28;19913;-80
2021/10/26 01:32:38;;;;;;;;;;;11.10;99.90;;;;;;5054158;28;20181;-79
2021/10/26 01:35:04;;;;;;;;;;;11.20;99.90;;;;;;5068216;28;20220;-80
2021/10/26 01:37:31;;;;;;;;;;;11.10;99.90;;;;;;5070932;28;19913;-79
2021/10/26 01:39:58;;;;;;;;;;;11.00;99.90;;;;;;5052910;28;19987;-80
2021/10/26 01:42:24;;;;;;;;;;;11.00;99.90;;;;;;5052467;28;19970;-78
2021/10/26 01:44:50;;;;;;;;;;;10.90;99.90;;;;;;5061714;28;19936;-79
2021/10/26 01:47:15;;;;;;;;;;;10.90;99.90;;;;;;5052337;28;21204;-79
2021/10/26 01:49:42;;;;;;;;;;;10.90;99.90;;;;;;5052776;28;19917;-78
2021/10/26 01:52:08;;;;;;;;;;;10.90;99.90;;;;;;5052569;28;19948;-79
2021/10/26 01:54:37;;;;;;;;;;;10.90;99.90;;;;;;5062281;28;19974;-78
2021/10/26 01:57:07;;;;;;;;;;;10.90;99.90;;;;;;5054164;28;19913;-79
2021/10/26 01:59:33;;;;;;;;;;;11.00;99.90;;;;;;5051954;28;19971;-79
2021/10/26 02:01:58;;;;;;;;;;;11.00;99.90;;;;;;5051971;28;19921;-78
2021/10/26 02:04:24;;;;;;;;;;;11.10;99.90;;;;;;5052965;28;19913;-78
2021/10/26 02:06:50;;;;;;;;;;;11.10;99.90;;;;;;5054343;28;19919;-79
2021/10/26 02:09:15;;;;;;;;;;;11.10;99.90;;;;;;5058573;28;19921;-78
2021/10/26 02:11:41;;;;;;;;;;;11.00;99.90;;;;;;5052484;28;19970;-79
2021/10/26 02:14:07;;;;;;;;;;;11.00;99.90;;;;;;5054040;28;19923;-79
2021/10/26 02:16:32;;;;;;;;;;;11.00;99.90;;;;;;5054128;28;20223;-79
2021/10/26 02:18:59;;;;;;;;;;;11.00;99.90;;;;;;5060427;28;20251;-78
2021/10/26 02:21:25;;;;;;;;;;;11.00;99.90;;;;;;5052156;28;20015;-79
2021/10/26 02:23:50;;;;;;;;;;;11.00;99.90;;;;;;5051651;28;20376;-78
2021/10/26 02:26:16;;;;;;;;;;;11.00;99.90;;;;;;5054401;28;20204;-78
2021/10/26 02:28:42;;;;;;;;;;;10.90;99.90;;;;;;5052622;28;19947;-78
2021/10/26 02:31:08;;;;;;;;;;;10.90;99.90;;;;;;5050896;28;19928;-79
2021/10/26 02:33:33;;;;;;;;;;;10.90;99.90;;;;;;5052376;28;19921;-78
2021/10/26 02:35:59;;;;;;;;;;;10.90;99.90;;;;;;5048827;28;20300;-79
2021/10/26 02:38:24;;;;;;;;;;;10.90;99.90;;;;;;5061806;28;20298;-77
2021/10/26 02:40:50;;;;;;;;;;;10.90;99.90;;;;;;5052999;28;19913;-79
2021/10/26 02:43:16;;;;;;;;;;;10.80;99.90;;;;;;5057760;28;20003;-78
2021/10/26 02:45:42;;;;;;;;;;;10.70;99.90;;;;;;5051531;28;20007;-77
2021/10/26 02:48:07;;;;;;;;;;;10.70;99.90;;;;;;5052152;28;19973;-79
2021/10/26 02:50:33;;;;;;;;;;;10.70;99.90;;;;;;5050864;28;19932;-79
2021/10/26 02:52:59;;;;;;;;;;;10.70;99.90;;;;;;5067570;28;19932;-77
2021/10/26 02:55:24;;;;;;;;;;;10.70;99.90;;;;;;5052812;28;20193;-76
2021/10/26 02:57:50;;;;;;;;;;;10.70;99.90;;;;;;5052252;28;20252;-79
2021/10/26 03:00:16;;;;;;;;;;;10.70;99.90;;;;;;5050947;28;20059;-78
2021/10/26 03:02:42;;;;;;;;;;;10.80;99.90;;;;;;5050935;28;19913;-77
2021/10/26 03:05:08;;;;;;;;;;;10.80;99.90;;;;;;5060942;28;19920;-79
2021/10/26 03:07:44;;;;;;;;;;;10.80;99.90;;;;;;5054702;28;20014;-79
2021/10/26 03:10:10;;;;;;;;;;;10.80;99.90;;;;;;5067392;28;20165;-78
2021/10/26 03:12:36;;;;;;;;;;;10.70;99.90;;;;;;5053143;28;19913;-78
2021/10/26 03:15:02;;;;;;;;;;;10.70;99.90;;;;;;5050021;28;19912;-78
2021/10/26 03:17:28;;;;;;;;;;;10.60;99.90;;;;;;5051586;28;19920;-79
2021/10/26 03:19:54;;;;;;;;;;;10.50;99.90;;;;;;5052162;28;19916;-79
2021/10/26 03:22:19;;;;;;;;;;;10.50;99.90;;;;;;5051444;28;19968;-79
2021/10/26 03:24:45;;;;;;;;;;;10.50;99.90;;;;;;5059936;28;19917;-79
2021/10/26 03:27:10;;;;;;;;;;;10.50;99.90;;;;;;5050292;28;20339;-79
2021/10/26 03:29:36;;;;;;;;;;;10.50;99.90;;;;;;5050640;28;19912;-78
2021/10/26 03:32:02;;;;;;;;;;;10.40;99.90;;;;;;5053071;28;19921;-79
2021/10/26 03:34:28;;;;;;;;;;;10.40;99.90;;;;;;5051965;28;19916;-79
2021/10/26 03:36:54;;;;;;;;;;;10.40;99.90;;;;;;5053136;28;19925;-79
2021/10/26 03:39:20;;;;;;;;;;;10.40;99.90;;;;;;5052013;28;19919;-77
2021/10/26 03:41:45;;;;;;;;;;;10.30;99.90;;;;;;5051038;28;19974;-80
2021/10/26 03:44:11;;;;;;;;;;;10.30;99.90;;;;;;5052527;28;20308;-79
2021/10/26 03:46:36;;;;;;;;;;;10.30;99.90;;;;;;5048644;28;20327;-79
2021/10/26 03:49:05;;;;;;;;;;;10.30;99.90;;;;;;5050663;28;20205;-78
2021/10/26 03:51:31;;;;;;;;;;;10.30;99.90;;;;;;5051409;28;20297;-78
2021/10/26 03:53:57;;;;;;;;;;;10.30;99.90;;;;;;5052220;28;19956;-78
2021/10/26 03:56:22;;;;;;;;;;;10.30;99.90;;;;;;5058113;28;19913;-77
2021/10/26 03:58:48;;;;;;;;;;;10.30;99.90;;;;;;5050643;28;20012;-77
2021/10/26 04:01:15;;;;;;;;;;;10.30;99.90;;;;;;5049164;28;19921;-78
2021/10/26 04:03:40;;;;;;;;;;;10.30;99.90;;;;;;5056842;28;20363;-77
2021/10/26 04:06:08;;;;;;;;;;;10.30;99.90;;;;;;5051687;28;20004;-78
2021/10/26 04:08:49;;;;;;;;;;;10.30;99.90;;;;;;5050113;28;20258;-77
2021/10/26 04:11:19;;;;;;;;;;;10.30;99.90;;;;;;5048358;28;20016;-78
2021/10/26 04:13:44;;;;;;;;;;;10.30;99.90;;;;;;5057759;28;19920;-77
2021/10/26 04:16:10;;;;;;;;;;;10.30;99.90;;;;;;5053108;28;19916;-77
2021/10/26 04:18:36;;;;;;;;;;;10.20;99.90;;;;;;5051232;28;19917;-77
2021/10/26 04:21:02;;;;;;;;;;;10.20;99.90;;;;;;5049385;28;19913;-78
2021/10/26 04:23:28;;;;;;;;;;;10.10;99.90;;;;;;5052437;28;19917;-77
2021/10/26 04:25:54;;;;;;;;;;;10.20;99.90;;;;;;5050541;28;20273;-77
2021/10/26 04:28:20;;;;;;;;;;;10.20;99.90;;;;;;5050244;28;20296;-78
2021/10/26 04:30:46;;;;;;;;;;;10.10;99.90;;;;;;5051870;28;20001;-77
2021/10/26 04:33:12;;;;;;;;;;;10.10;99.90;;;;;;5051758;28;20312;-76
2021/10/26 04:35:37;;;;;;;;;;;10.10;99.90;;;;;;5051751;28;20003;-78
2021/10/26 04:38:03;;;;;;;;;;;10.00;99.90;;;;;;5051885;28;20015;-78
2021/10/26 04:40:29;;;;;;;;;;;10.00;99.90;;;;;;5052773;28;19939;-77
2021/10/26 04:42:54;;;;;;;;;;;10.00;99.90;;;;;;5052165;28;19913;-78
2021/10/26 04:45:21;;;;;;;;;;;9.90;99.90;;;;;;5048894;28;19955;-78
2021/10/26 04:47:47;;;;;;;;;;;9.90;99.90;;;;;;5050711;28;19920;-77
2021/10/26 04:50:13;;;;;;;;;;;9.90;99.90;;;;;;5053575;28;19917;-78
2021/10/26 04:52:39;;;;;;;;;;;9.90;99.90;;;;;;5050067;28;19917;-78
2021/10/26 04:55:05;;;;;;;;;;;9.90;99.90;;;;;;5050883;28;19913;-77
2021/10/26 04:57:31;;;;;;;;;;;9.90;99.90;;;;;;5049478;28;19913;-77
2021/10/26 04:59:56;;;;;;;;;;;9.90;99.90;;;;;;5051898;28;19916;-78
2021/10/26 05:02:22;;;;;;;;;;;9.90;99.90;;;;;;5054144;28;20260;-78
2021/10/26 05:04:48;;;;;;;;;;;9.90;99.90;;;;;;5056163;28;19947;-77
2021/10/26 05:07:15;;;;;;;;;;;9.90;99.90;;;;;;5054561;28;19923;-78
2021/10/26 05:09:40;;;;;;;;;;;9.90;99.90;;;;;;5055943;28;19992;-78
2021/10/26 05:12:06;;;;;;;;;;;9.90;99.90;;;;;;5060301;28;20030;-76
2021/10/26 05:14:32;;;;;;;;;;;9.90;99.90;;;;;;5055561;28;19963;-77
2021/10/26 05:16:58;;;;;;;;;;;9.80;99.90;;;;;;5055451;28;20259;-76
2021/10/26 05:19:26;;;;;;;;;;;9.80;99.90;;;;;;5055454;28;19925;-78
2021/10/26 05:21:52;;;;;;;;;;;9.80;99.90;;;;;;5054503;28;20015;-79
2021/10/26 05:24:18;;;;;;;;;;;9.80;99.90;;;;;;5071372;28;20008;-76
2021/10/26 05:26:43;;;;;;;;;;;9.80;99.90;;;;;;5055216;28;19932;-77
2021/10/26 05:29:09;;;;;;;;;;;9.80;99.90;;;;;;5055063;28;19913;-77
2021/10/26 05:31:35;;;;;;;;;;;9.80;99.90;;;;;;5061782;28;19948;-78
2021/10/26 05:34:01;;;;;;;;;;;9.80;99.90;;;;;;5070464;28;19925;-77
2021/10/26 05:36:27;;;;;;;;;;;9.80;99.90;;;;;;5053329;28;19912;-78
2021/10/26 05:38:53;;;;;;;;;;;9.80;99.90;;;;;;5054309;28;19924;-76
2021/10/26 05:41:18;;;;;;;;;;;9.80;99.90;;;;;;5054961;28;20308;-76
2021/10/26 05:43:44;;;;;;;;;;;9.80;99.90;;;;;;5055300;28;19913;-78
2021/10/26 05:46:10;;;;;;;;;;;9.80;99.90;;;;;;5053225;28;19912;-78
2021/10/26 05:48:35;;;;;;;;;;;9.80;99.90;;;;;;5057415;28;19920;-77
2021/10/26 05:51:02;;;;;;;;;;;9.80;99.90;;;;;;5053241;28;19971;-79
2021/10/26 05:53:28;;;;;;;;;;;9.80;99.90;;;;;;5052777;28;19921;-80
2021/10/26 05:55:54;;;;;;;;;;;9.90;99.90;;;;;;5062571;28;20012;-80
2021/10/26 05:58:19;;;;;;;;;;;9.90;99.90;;;;;;5058655;28;19988;-79
2021/10/26 06:00:45;;;;;;;;;;;9.90;99.90;;;;;;5054727;28;19913;-80
2021/10/26 06:03:11;;;;;;;;;;;9.90;99.90;;;;;;5055401;28;19917;-81
2021/10/26 06:05:38;;;;;;;;;;;9.90;99.90;;;;;;5053476;28;19974;-81
2021/10/26 06:08:04;;;;;;;;;;;9.90;99.90;;;;;;5060946;28;20235;-78
2021/10/26 06:10:32;;;;;;;;;;;10.00;99.90;;;;;;5053826;28;19913;-79
2021/10/26 06:13:02;;;;;;;;;;;10.00;99.90;;;;;;5053155;28;19974;-79
2021/10/26 06:15:28;;;;;;;;;;;10.00;99.90;;;;;;5054039;28;19999;-80
2021/10/26 06:17:53;;;;;;;;;;;10.00;99.90;;;;;;5055019;28;20031;-79
2021/10/26 06:20:19;;;;;;;;;;;10.10;99.90;;;;;;5053852;28;19940;-81
2021/10/26 06:22:44;;;;;;;;;;;10.10;99.90;;;;;;5060347;28;19969;-76
2021/10/26 06:25:10;;;;;;;;;;;10.10;99.90;;;;;;5055416;28;19913;-80
2021/10/26 06:27:36;;;;;;;;;;;10.10;99.90;;;;;;5052392;28;19921;-79
2021/10/26 06:30:01;;;;;;;;;;;10.10;99.90;;;;;;5054474;28;20207;-79
2021/10/26 06:32:30;;;;;;;;;;;10.10;99.90;;;;;;5051132;28;19917;-80
2021/10/26 06:34:56;;;;;;;;;;;10.10;99.90;;;;;;5053696;28;19916;-79
2021/10/26 06:37:22;;;;;;;;;;;10.10;99.90;;;;;;5054323;28;20253;-79
2021/10/26 06:39:50;;;;;;;;;;;10.10;99.90;;;;;;5053511;28;20015;-79
2021/10/26 06:42:16;;;;;;;;;;;10.10;99.90;;;;;;5054403;28;19924;-79
2021/10/26 06:44:41;;;;;;;;;;;10.10;99.90;;;;;;5058615;28;19962;-80
2021/10/26 06:47:07;;;;;;;;;;;10.10;99.90;;;;;;5051782;28;19921;-80
2021/10/26 06:49:32;;;;;;;;;;;10.20;99.90;;;;;;5053957;28;19920;-79
2021/10/26 06:51:58;;;;;;;;;;;10.20;99.90;;;;;;5052070;28;20311;-78
2021/10/26 06:54:23;;;;;;;;;;;10.20;99.90;;;;;;5052818;28;19924;-79
2021/10/26 06:56:49;;;;;;;;;;;10.10;99.90;;;;;;5052369;28;19917;-79
2021/10/26 06:59:15;;;;;;;;;;;10.10;99.90;;;;;;5061846;28;19921;-79
2021/10/26 07:01:40;;;;;;;;;;;10.10;99.90;;;;;;5064452;28;19919;-79
2021/10/26 07:04:06;;;;;;;;;;;10.10;99.90;;;;;;5052276;28;19920;-79
2021/10/26 07:06:31;;;;;;;;;;;10.10;99.90;;;;;;5051497;28;19913;-79
2021/10/26 07:08:57;;;;;;;;;;;10.20;99.90;;;;;;5053704;28;20051;-79
2021/10/26 07:11:23;;;;;;;;;;;10.20;99.90;;;;;;5051573;28;19917;-80
2021/10/26 07:13:49;;;;;;;;;;;10.20;99.90;;;;;;5051172;28;20007;-79
2021/10/26 07:16:15;;;;;;;;;;;10.20;99.90;;;;;;5051578;28;19916;-79
2021/10/26 07:18:40;;;;;;;;;;;10.20;99.90;;;;;;5053479;28;20706;-79
2021/10/26 07:21:06;;;;;;;;;;;10.30;99.90;;;;;;5053733;28;19943;-79
2021/10/26 07:23:31;;;;;;;;;;;10.20;99.90;;;;;;5053194;28;19935;-80
2021/10/26 07:25:57;;;;;;;;;;;10.30;99.90;;;;;;5057171;28;19925;-79
2021/10/26 07:28:23;;;;;;;;;;;10.40;99.90;;;;;;5055396;28;19931;-80
2021/10/26 07:30:48;;;;;;;;;;;10.40;99.90;;;;;;5051959;28;19935;-79
2021/10/26 07:33:18;;;;;;;;;;;10.50;99.90;;;;;;5051023;28;20215;-79
2021/10/26 07:35:45;;;;;;;;;;;10.50;99.90;;;;;;5050901;28;19921;-79
2021/10/26 07:38:13;;;;;;;;;;;10.60;99.90;;;;;;5050942;28;19921;-80
2021/10/26 07:40:39;;;;;;;;;;;10.70;99.90;;;;;;5050433;28;19920;-80
2021/10/26 07:43:05;;;;;;;;;;;10.80;99.90;;;;;;5049592;28;20362;-80
2021/10/26 07:45:31;;;;;;;;;;;11.00;99.90;;;;;;5052336;28;19921;-80
2021/10/26 07:47:56;;;;;;;;;;;11.10;99.90;;;;;;5051524;28;19943;-80
2021/10/26 07:50:22;;;;;;;;;;;11.20;99.90;;;;;;5053528;28;19913;-79
2021/10/26 07:52:48;;;;;;;;;;;11.20;99.90;;;;;;5052356;28;19916;-80
2021/10/26 07:55:14;;;;;;;;;;;11.40;99.90;;;;;;5049688;28;19921;-80
2021/10/26 07:57:39;;;;;;;;;;;11.50;99.90;;;;;;5051752;28;20251;-80
2021/10/26 08:00:06;;;;;;;;;;;11.60;99.90;;;;;;5050734;28;19920;-79
2021/10/26 08:02:31;;;;;;;;;;;11.70;99.90;;;;;;5051358;28;19944;-82
2021/10/26 08:04:57;;;;;;;;;;;11.70;99.90;;;;;;5056730;28;20304;-81
2021/10/26 08:07:23;;;;;;;;;;;11.80;99.90;;;;;;5053166;28;20304;-81
2021/10/26 08:09:50;;;;;;;;;;;11.80;99.90;;;;;;5058148;28;19921;-81
2021/10/26 08:12:16;;;;;;;;;;;11.80;99.90;;;;;;5052118;28;20038;-82
2021/10/26 08:14:41;;;;;;;;;;;11.90;99.90;;;;;;5061034;28;19951;-79
2021/10/26 08:17:07;;;;;;;;;;;11.80;99.90;;;;;;5048725;28;19963;-82
2021/10/26 08:19:34;;;;;;;;;;;11.80;99.90;;;;;;5049512;28;20365;-81
2021/10/26 08:22:00;;;;;;;;;;;11.80;99.90;;;;;;5052476;28;19961;-81
2021/10/26 08:24:30;;;;;;;;;;;11.80;99.90;;;;;;5069553;28;20020;-81
2021/10/26 08:26:59;;;;;;;;;;;11.80;99.90;;;;;;5051050;28;19936;-82
2021/10/26 08:29:39;;;;;;;;;;;11.70;99.90;;;;;;5051736;28;20051;-82
2021/10/26 08:34:46;;;;;;;;;;;11.70;99.90;;;;;;5054908;28;19974;-81
2021/10/26 08:37:12;;;;;;;;;;;11.60;99.90;;;;;;5053213;28;19913;-82
2021/10/26 08:39:38;;;;;;;;;;;11.60;99.90;;;;;;5056565;28;19982;-81
2021/10/26 08:42:06;;;;;;;;;;;11.60;99.90;;;;;;5053133;28;19925;-82
2021/10/26 08:44:33;;;;;;;;;;;11.60;99.90;;;;;;5057517;28;20011;-83
2021/10/26 08:46:59;;;;;;;;;;;11.50;99.90;;;;;;5055613;28;20312;-81
2021/10/26 08:49:25;;;;;;;;;;;11.50;99.90;;;;;;5053058;28;19919;-82
2021/10/26 08:51:52;;;;;;;;;;;11.50;99.90;;;;;;5051499;28;19916;-82
2021/10/26 08:54:19;;;;;;;;;;;11.50;99.90;;;;;;5048445;28;20003;-81
2021/10/26 08:56:47;;;;;;;;;;;11.50;99.90;;;;;;5067548;28;19912;-82
2021/10/26 08:59:16;;;;;;;;;;;11.60;99.90;;;;;;5055323;28;19917;-82
2021/10/26 09:01:45;;;;;;;;;;;11.60;99.90;;;;;;5053472;28;19968;-82
2021/10/26 09:04:11;;;;;;;;;;;11.60;99.90;;;;;;5052982;28;19917;-81
2021/10/26 09:06:43;;;;;;;;;;;11.70;99.90;;;;;;5053098;28;20613;-81
2021/10/26 09:09:13;;;;;;;;;;;11.70;99.90;;;;;;5051769;28;19959;-82
2021/10/26 09:16:40;;;;;;;;;;;11.80;99.90;;;;;;5052451;28;19921;-82
2021/10/26 09:17:19;;;;;;;;;;;12.00;99.90;;;;;;5052474;28;19924;-83
2021/10/26 09:19:45;;;;;;;;;;;12.10;99.90;;;;;;5053842;28;19913;-83
2021/10/26 09:22:12;;;;;;;;;;;12.20;99.90;;;;;;5053092;28;20315;-83
2021/10/26 09:24:51;;;;;;;;;;;12.20;99.90;;;;;;5055561;28;19920;-83
2021/10/26 09:27:21;;;;;;;;;;;12.30;99.90;;;;;;5050394;28;20387;-82
2021/10/26 09:29:48;;;;;;;;;;;12.30;99.90;;;;;;5050734;28;21068;-82
2021/10/26 09:32:37;;;;;;;;;;;12.30;99.90;;;;;;5048448;28;20411;-82
2021/10/26 09:35:10;;;;;;;;;;;12.30;99.90;;;;;;5044629;28;19952;-82
2021/10/26 09:37:45;;;;;;;;;;;12.30;99.90;;;;;;5055497;28;20016;-82
2021/10/26 09:40:11;;;;;;;;;;;12.30;99.90;;;;;;5060748;28;19938;-84
2021/10/26 09:42:44;;;;;;;;;;;12.30;99.90;;;;;;5053056;28;20270;-81
2021/10/26 09:45:12;;;;;;;;;;;12.30;99.90;;;;;;5051701;28;19967;-82
2021/10/26 09:47:39;;;;;;;;;;;12.30;99.90;;;;;;5049534;28;19928;-82
2021/10/26 09:50:06;;;;;;;;;;;12.30;99.90;;;;;;5054350;28;19924;-82
2021/10/26 09:52:36;;;;;;;;;;;12.30;99.90;;;;;;5055024;28;19917;-82
2021/10/26 09:55:15;;;;;;;;;;;12.40;99.90;;;;;;5054561;28;19916;-82
2021/10/26 09:57:43;;;;;;;;;;;12.40;99.90;;;;;;5054044;28;19949;-82
2021/10/26 10:00:10;;;;;;;;;;;12.50;99.90;;;;;;5056903;28;19971;-83
2021/10/26 10:02:36;;;;;;;;;;;12.50;99.90;;;;;;5053101;28;21231;-81
2021/10/26 10:05:18;;;;;;;;;;;12.60;99.90;;;;;;5062198;28;19923;-82
2021/10/26 10:07:44;;;;;;;;;;;12.60;99.90;;;;;;5059873;28;19920;-79
2021/10/26 10:10:11;;;;;;;;;;;12.60;99.90;;;;;;5054128;28;20335;-82
2021/10/26 10:12:42;;;;;;;;;;;12.60;99.90;;;;;;5060222;28;20007;-82
2021/10/26 10:15:08;;;;;;;;;;;12.60;99.90;;;;;;5069321;28;19924;-83
2021/10/26 10:17:35;;;;;;;;;;;12.50;99.90;;;;;;5050203;28;19916;-82
2021/10/26 10:20:04;;;;;;;;;;;12.60;99.90;;;;;;5052823;28;19917;-81
2021/10/26 10:22:30;;;;;;;;;;;12.60;99.90;;;;;;5053773;28;20317;-83
2021/10/26 10:24:57;;;;;;;;;;;12.60;99.90;;;;;;5054667;28;19958;-84
2021/10/26 10:27:25;;;;;;;;;;;12.60;99.90;;;;;;5049186;28;19932;-82
2021/10/26 10:29:52;;;;;;;;;;;12.60;99.90;;;;;;5054188;28;19913;-84
2021/10/26 10:32:20;;;;;;;;;;;12.60;99.90;;;;;;5052751;28;20017;-83
2021/10/26 10:34:45;;;;;;;;;;;12.50;99.90;;;;;;5067957;28;20311;-83
2021/10/26 10:37:11;;;;;;;;;;;12.50;99.90;;;;;;5051232;28;19913;-81
2021/10/26 10:39:37;;;;;;;;;;;12.50;99.90;;;;;;5054886;28;19924;-85
2021/10/26 10:42:19;;;;;;;;;;;12.40;99.90;;;;;;5054428;28;19920;-84
2021/10/26 10:44:45;;;;;;;;;;;12.40;99.90;;;;;;5053374;28;19917;-81
2021/10/26 10:47:30;;;;;;;;;;;12.40;99.90;;;;;;5054356;28;19921;-82
2021/10/26 10:49:55;;;;;;;;;;;12.30;99.90;;;;;;5064658;28;19912;-82
2021/10/26 10:52:27;;;;;;;;;;;12.30;99.90;;;;;;5065199;28;19924;-80
2021/10/26 10:54:54;;;;;;;;;;;12.30;99.90;;;;;;5047709;28;20012;-81
2021/10/26 10:57:19;;;;;;;;;;;12.40;99.90;;;;;;5052300;28;19920;-83
2021/10/26 10:59:46;;;;;;;;;;;12.40;99.90;;;;;;5050051;28;19932;-82
2021/10/26 11:02:25;;;;;;;;;;;12.40;99.90;;;;;;5050085;28;20015;-81
2021/10/26 11:04:52;;;;;;;;;;;12.50;99.90;;;;;;5049901;28;20069;-85
2021/10/26 11:07:44;;;;;;;;;;;12.50;99.90;;;;;;5042903;28;20215;-83
2021/10/26 11:10:10;;;;;;;;;;;12.50;99.90;;;;;;5049330;28;19921;-84
2021/10/26 11:12:36;;;;;;;;;;;12.50;99.90;;;;;;5053267;28;19995;-85
2021/10/26 11:15:06;;;;;;;;;;;12.60;99.90;;;;;;5054077;28;20410;-85
2021/10/26 11:17:35;;;;;;;;;;;12.70;99.90;;;;;;5050335;28;20025;-86
2021/10/26 11:20:11;;;;;;;;;;;12.70;99.90;;;;;;5063473;28;19920;-83
2021/10/26 11:22:43;;;;;;;;;;;12.80;99.90;;;;;;5066313;28;19917;-86
2021/10/26 11:25:27;;;;;;;;;;;12.80;99.90;;;;;;5053306;28;20000;-86
2021/10/26 11:27:53;;;;;;;;;;;12.90;99.90;;;;;;5053178;28;19927;-79
2021/10/26 11:30:28;;;;;;;;;;;12.90;99.90;;;;;;5053652;28;20267;-86
2021/10/26 11:33:09;;;;;;;;;;;12.90;99.90;;;;;;5057749;28;19921;-85
2021/10/26 11:35:53;;;;;;;;;;;13.00;99.90;;;;;;5054159;28;19924;-86
2021/10/26 11:38:51;;;;;;;;;;;13.00;99.90;;;;;;5056266;28;19928;-84
2021/10/26 11:41:24;;;;;;;;;;;13.10;99.90;;;;;;5010812;28;19917;-86
2021/10/26 11:43:49;;;;;;;;;;;13.10;99.90;;;;;;4985658;28;19984;-86
2021/10/26 11:46:20;;;;;;;;;;;13.10;99.90;;;;;;5006720;28;20238;-86
2021/10/26 11:48:52;;;;;;;;;;;13.20;99.90;;;;;;4993975;28;20055;-84
2021/10/26 11:51:19;;;;;;;;;;;13.10;99.90;;;;;;4997903;28;19922;-81
2021/10/26 11:53:45;;;;;;;;;;;13.00;99.90;;;;;;5008620;28;20043;-81
2021/10/26 11:56:18;;;;;;;;;;;13.00;99.90;;;;;;5008432;28;20012;-82
2021/10/26 11:58:53;;;;;;;;;;;12.90;99.90;;;;;;5005769;28;20841;-82
2021/10/26 12:01:20;;;;;;;;;;;12.90;99.90;;;;;;5007917;28;19917;-82
2021/10/26 12:03:47;;;;;;;;;;;12.90;99.90;;;;;;4991261;28;20221;-82
2021/10/26 12:06:26;;;;;;;;;;;12.80;99.90;;;;;;4983340;28;19917;-81
2021/10/26 12:08:56;;;;;;;;;;;12.80;99.90;;;;;;4994416;28;19914;-83
2021/10/26 12:11:32;;;;;;;;;;;12.80;99.90;;;;;;4983737;28;20036;-82
2021/10/26 12:14:15;;;;;;;;;;;12.80;99.90;;;;;;4986357;28;19918;-83
2021/10/26 12:16:59;;;;;;;;;;;12.80;99.90;;;;;;4996579;28;19917;-84
2021/10/26 12:19:28;;;;;;;;;;;12.80;99.90;;;;;;5053226;28;19921;-80
2021/10/26 12:21:55;;;;;;;;;;;12.80;99.90;;;;;;5065729;28;20412;-81
2021/10/26 12:24:22;;;;;;;;;;;12.80;99.90;;;;;;5050723;28;19992;-88
2021/10/26 12:26:59;;;;;;;;;;;12.70;99.90;;;;;;5050789;28;20349;-82
2021/10/26 12:29:34;;;;;;;;;;;12.80;99.90;;;;;;5051687;28;19924;-81
2021/10/26 12:32:02;;;;;;;;;;;12.80;99.90;;;;;;5051386;28;19963;-83
2021/10/26 12:34:28;;;;;;;;;;;12.90;99.90;;;;;;5054181;28;19913;-81
2021/10/26 12:37:14;;;;;;;;;;;12.90;99.90;;;;;;5068662;28;19928;-83
2021/10/26 12:39:43;;;;;;;;;;;12.90;99.90;;;;;;5057281;28;19967;-86
2021/10/26 12:42:26;;;;;;;;;;;13.00;99.90;;;;;;5040409;28;20315;-82
2021/10/26 12:44:53;;;;;;;;;;;13.00;99.90;;;;;;5049927;28;19913;-84
2021/10/26 12:47:19;;;;;;;;;;;13.00;99.90;;;;;;5052481;28;19928;-82
2021/10/26 12:49:45;;;;;;;;;;;13.00;99.90;;;;;;5057125;28;19920;-81
2021/10/26 12:52:12;;;;;;;;;;;13.00;99.90;;;;;;5052136;28;19917;-81
2021/10/26 12:54:38;;;;;;;;;;;13.00;99.90;;;;;;5048452;28;19917;-81
2021/10/26 12:57:03;;;;;;;;;;;13.10;99.90;;;;;;5046043;28;20283;-82
2021/10/26 12:59:29;;;;;;;;;;;13.10;99.90;;;;;;5046790;28;19913;-81
2021/10/26 13:01:59;;;;;;;;;;;13.10;99.90;;;;;;5045323;28;19920;-82
2021/10/26 13:04:25;;;;;;;;;;;13.10;99.90;;;;;;5047062;28;19920;-81
2021/10/26 13:06:55;;;;;;;;;;;13.20;99.90;;;;;;5048747;28;20235;-82
2021/10/26 13:09:33;;;;;;;;;;;13.20;99.90;;;;;;5049089;28;19924;-82
2021/10/26 13:12:17;;;;;;;;;;;13.30;99.90;;;;;;5047626;28;20008;-82
2021/10/26 13:14:50;;;;;;;;;;;13.30;99.90;;;;;;5039917;28;19967;-83
2021/10/26 13:17:27;;;;;;;;;;;13.20;99.90;;;;;;5047158;28;20312;-82
2021/10/26 13:20:11;;;;;;;;;;;13.20;99.90;;;;;;5047853;28;20330;-83
2021/10/26 13:22:38;;;;;;;;;;;13.20;99.90;;;;;;5058295;28;20000;-82
2021/10/26 13:25:04;;;;;;;;;;;13.20;99.90;;;;;;5055640;28;19913;-82
2021/10/26 13:27:29;;;;;;;;;;;13.20;99.90;;;;;;5054650;28;19944;-82
2021/10/26 13:29:55;;;;;;;;;;;13.30;99.90;;;;;;5059011;28;19913;-82
2021/10/26 13:32:23;;;;;;;;;;;13.30;99.90;;;;;;5055220;28;20011;-82
2021/10/26 13:34:49;;;;;;;;;;;13.30;99.90;;;;;;5061747;28;19916;-82
2021/10/26 13:37:15;;;;;;;;;;;13.40;99.90;;;;;;5053769;28;20311;-82
2021/10/26 13:39:43;;;;;;;;;;;13.50;99.90;;;;;;5054971;28;19913;-82
2021/10/26 13:42:09;;;;;;;;;;;13.60;99.90;;;;;;5059351;28;19927;-82
2021/10/26 13:44:34;;;;;;;;;;;13.70;99.90;;;;;;5051969;28;19946;-81
2021/10/26 13:47:00;;;;;;;;;;;13.80;99.90;;;;;;5052366;28;19967;-81
2021/10/26 13:49:25;;;;;;;;;;;13.80;99.90;;;;;;5053983;28;19927;-81
2021/10/26 13:51:51;;;;;;;;;;;13.70;99.90;;;;;;5054220;28;20304;-85
2021/10/26 13:54:18;;;;;;;;;;;13.70;99.90;;;;;;5054246;28;19976;-82
2021/10/26 13:56:44;;;;;;;;;;;13.70;99.90;;;;;;5050963;28;19928;-82
2021/10/26 13:59:10;;;;;;;;;;;13.70;99.90;;;;;;5053586;28;19917;-81
2021/10/26 14:01:35;;;;;;;;;;;13.70;99.90;;;;;;5047138;28;20024;-81
2021/10/26 14:04:01;;;;;;;;;;;13.80;99.90;;;;;;5053705;28;19920;-82
2021/10/26 14:06:27;;;;;;;;;;;13.70;99.90;;;;;;5054818;28;19924;-81
2021/10/26 14:08:55;;;;;;;;;;;13.70;99.90;;;;;;5049616;28;19971;-81
2021/10/26 14:11:21;;;;;;;;;;;13.70;99.90;;;;;;5048953;28;19928;-81
2021/10/26 14:13:48;;;;;;;;;;;13.70;99.90;;;;;;5049818;28;19912;-80
2021/10/26 14:16:13;;;;;;;;;;;13.70;99.90;;;;;;5047632;28;19917;-81
2021/10/26 14:18:41;;;;;;;;;;;13.70;99.90;;;;;;5054604;28;19920;-81
2021/10/26 14:21:07;;;;;;;;;;;13.70;99.90;;;;;;5049650;28;19921;-81
2021/10/26 14:23:34;;;;;;;;;;;13.70;99.90;;;;;;5054132;28;19913;-81
2021/10/26 14:26:03;;;;;;;;;;;13.70;99.90;;;;;;5049775;28;19925;-80
2021/10/26 14:28:29;;;;;;;;;;;13.70;99.90;;;;;;5054080;28;19916;-80